< < Back
Terminal Aerodrome Forecast


Current Version              Previous Versions:   1  2  3  4  5  6  7  8  9  

Terminal Aerodrome Forecast

055
FTUS42 KGSP 271100
TAFGSP
TAF
KGSP 271120Z 2712/2812 03003KT P6SM SKC
     FM271500 01005KT P6SM SKC
     FM280200 00000KT P6SM SKC=

Latest METAR

252
SAUS70 KWBC 281300 RRC
MTRGSP
METAR KGSP 281253Z 00000KT 10SM CLR 24/18 A3005 RMK AO2 SLP166
T02390178


USA.gov is the U.S. government's official web portal to all federal, state and local government web resources and services.